createdAt,value
2022-09-26T00:00:43.445Z,0
2022-09-26T00:01:46.849Z,0
2022-09-26T00:02:50.174Z,0
2022-09-26T00:03:53.044Z,0
2022-09-26T00:04:55.806Z,0
2022-09-26T00:05:58.698Z,0
2022-09-26T00:07:01.889Z,0
2022-09-26T00:08:04.436Z,0
2022-09-26T00:09:07.611Z,0
2022-09-26T00:10:10.979Z,0
2022-09-26T00:11:13.675Z,0
2022-09-26T00:12:16.821Z,0
2022-09-26T00:13:19.985Z,0
2022-09-26T00:14:23.484Z,0
2022-09-26T00:15:27.597Z,0
2022-09-26T00:16:30.898Z,0
2022-09-26T00:17:34.523Z,0
2022-09-26T00:18:37.481Z,0
2022-09-26T00:19:40.648Z,0
2022-09-26T00:20:43.182Z,0
2022-09-26T00:21:45.894Z,0
2022-09-26T00:22:49.044Z,0
2022-09-26T00:23:52.199Z,0
2022-09-26T00:24:55.189Z,0
2022-09-26T00:25:58.262Z,0
2022-09-26T00:27:01.631Z,0
2022-09-26T00:28:04.420Z,0
2022-09-26T00:29:07.502Z,0
2022-09-26T00:30:11.171Z,0
2022-09-26T00:31:15.211Z,0
2022-09-26T00:32:19.174Z,0
2022-09-26T00:33:21.411Z,0
2022-09-26T00:34:24.843Z,0
2022-09-26T00:35:28.204Z,0
2022-09-26T00:36:37.843Z,0
2022-09-26T00:37:41.679Z,0
2022-09-26T00:38:45.098Z,0
2022-09-26T00:39:48.434Z,0
2022-09-26T00:40:51.889Z,0
2022-09-26T00:41:55.384Z,0
2022-09-26T00:42:57.814Z,0
2022-09-26T00:44:00.691Z,0
2022-09-26T00:45:03.478Z,0
2022-09-26T00:46:06.572Z,0
2022-09-26T00:47:10.815Z,0
2022-09-26T00:48:13.706Z,0
2022-09-26T00:49:16.644Z,0
2022-09-26T00:50:19.434Z,0
2022-09-26T00:51:21.958Z,0
2022-09-26T00:52:25.402Z,0
2022-09-26T00:53:28.400Z,0
2022-09-26T00:54:31.581Z,0
2022-09-26T00:55:34.409Z,0
2022-09-26T00:56:37.526Z,0
2022-09-26T00:57:40.036Z,0
2022-09-26T00:58:43.022Z,0
2022-09-26T00:59:45.536Z,0
2022-09-26T01:00:48.404Z,0
2022-09-26T01:01:51.101Z,0
2022-09-26T01:02:55.870Z,0
2022-09-26T01:03:59.281Z,0
2022-09-26T01:05:02.753Z,0
2022-09-26T01:06:05.641Z,0
2022-09-26T01:07:08.881Z,0
2022-09-26T01:08:12.591Z,0
2022-09-26T01:09:15.552Z,0
2022-09-26T01:10:19.066Z,0
2022-09-26T01:11:21.877Z,0
2022-09-26T01:12:24.319Z,0
2022-09-26T01:13:26.825Z,0
2022-09-26T01:14:29.606Z,0
2022-09-26T01:15:32.664Z,0
2022-09-26T01:16:35.928Z,0
2022-09-26T01:17:39.682Z,0
2022-09-26T01:18:43.723Z,0
2022-09-26T01:19:46.843Z,0
2022-09-26T01:20:50.183Z,0
2022-09-26T01:21:52.621Z,0
2022-09-26T01:22:55.123Z,0
2022-09-26T01:23:58.852Z,0
2022-09-26T01:25:02.240Z,0
2022-09-26T01:26:05.038Z,0
2022-09-26T01:27:06.993Z,0
2022-09-26T01:28:09.669Z,0
2022-09-26T01:29:12.251Z,0
2022-09-26T01:30:16.629Z,0
2022-09-26T01:31:20.372Z,0
2022-09-26T01:32:24.670Z,0
2022-09-26T01:33:27.855Z,0
2022-09-26T01:34:31.455Z,0
2022-09-26T01:35:34.530Z,0
2022-09-26T01:36:37.620Z,0
2022-09-26T01:37:40.622Z,0
2022-09-26T01:38:43.614Z,0
2022-09-26T01:39:46.728Z,0
2022-09-26T01:40:50.063Z,0
2022-09-26T01:41:53.850Z,0
2022-09-26T01:42:56.849Z,0
2022-09-26T01:43:59.322Z,0
2022-09-26T01:45:02.744Z,0
2022-09-26T01:46:06.034Z,0
2022-09-26T01:47:09.883Z,0
2022-09-26T01:48:13.217Z,0
2022-09-26T01:49:16.205Z,0
2022-09-26T01:50:20.344Z,0
2022-09-26T01:51:23.654Z,0
2022-09-26T01:52:26.834Z,0
2022-09-26T01:53:30.200Z,0
2022-09-26T01:54:33.186Z,0
2022-09-26T01:55:36.331Z,0
2022-09-26T01:56:39.161Z,0
2022-09-26T01:57:42.524Z,0
2022-09-26T01:58:45.893Z,0
2022-09-26T01:59:48.791Z,0
2022-09-26T02:00:51.208Z,0
2022-09-26T02:01:54.435Z,0
2022-09-26T02:02:57.106Z,0
2022-09-26T02:04:00.254Z,0
2022-09-26T02:05:02.753Z,0
2022-09-26T02:06:06.584Z,0
2022-09-26T02:07:09.947Z,0
2022-09-26T02:08:12.659Z,0
2022-09-26T02:09:14.677Z,0
2022-09-26T02:10:17.738Z,0
2022-09-26T02:11:20.557Z,0
2022-09-26T02:12:23.075Z,0
2022-09-26T02:13:25.893Z,0
2022-09-26T02:14:28.682Z,0
2022-09-26T02:15:32.053Z,0
2022-09-26T02:16:34.883Z,0
2022-09-26T02:17:38.391Z,0
2022-09-26T02:18:41.384Z,0
2022-09-26T02:19:43.987Z,0
2022-09-26T02:20:47.083Z,0
2022-09-26T02:21:51.039Z,0
2022-09-26T02:22:54.694Z,0
2022-09-26T02:23:57.577Z,0
2022-09-26T02:25:00.183Z,0
2022-09-26T02:26:02.978Z,0
2022-09-26T02:27:06.394Z,0
2022-09-26T02:28:09.568Z,0
2022-09-26T02:29:12.406Z,0
2022-09-26T02:30:16.314Z,0
2022-09-26T02:31:19.045Z,0
2022-09-26T02:32:23.398Z,0
2022-09-26T02:33:26.833Z,0
2022-09-26T02:34:29.643Z,0
2022-09-26T02:35:33.101Z,0
2022-09-26T02:36:36.241Z,0
2022-09-26T02:37:40.420Z,0
2022-09-26T02:38:44.262Z,0
2022-09-26T02:39:47.133Z,0
2022-09-26T02:40:50.287Z,0
2022-09-26T02:41:53.900Z,0
2022-09-26T02:42:57.253Z,0
2022-09-26T02:44:00.403Z,0
2022-09-26T02:45:03.472Z,0
2022-09-26T02:46:06.750Z,0
2022-09-26T02:47:09.922Z,0
2022-09-26T02:48:12.794Z,0
2022-09-26T02:49:15.439Z,0
2022-09-26T02:50:18.533Z,0
2022-09-26T02:51:21.609Z,0
2022-09-26T02:52:24.489Z,0
2022-09-26T02:53:28.304Z,0
2022-09-26T02:54:31.695Z,0
2022-09-26T02:55:34.760Z,0
2022-09-26T02:56:37.363Z,0
2022-09-26T02:57:39.703Z,0
2022-09-26T02:58:42.691Z,0
2022-09-26T02:59:45.456Z,0
2022-09-26T03:00:48.045Z,0
2022-09-26T03:01:51.943Z,0
2022-09-26T03:02:55.152Z,0
2022-09-26T03:03:58.603Z,0
2022-09-26T03:05:01.380Z,0
2022-09-26T03:06:04.646Z,0
2022-09-26T03:07:07.884Z,0
2022-09-26T03:08:11.058Z,0
2022-09-26T03:09:15.320Z,0
2022-09-26T03:10:18.094Z,0
2022-09-26T03:11:20.961Z,0
2022-09-26T03:12:24.098Z,0
2022-09-26T03:13:26.610Z,0
2022-09-26T03:14:29.498Z,0
2022-09-26T03:15:32.563Z,0
2022-09-26T03:16:35.728Z,0
2022-09-26T03:17:39.559Z,0
2022-09-26T03:18:42.069Z,0
2022-09-26T03:19:45.210Z,0
2022-09-26T03:20:48.195Z,0
2022-09-26T03:21:51.659Z,0
2022-09-26T03:22:55.387Z,0
2022-09-26T03:23:58.281Z,0
2022-09-26T03:25:02.143Z,0
2022-09-26T03:26:05.844Z,0
2022-09-26T03:27:08.646Z,0
2022-09-26T03:28:11.799Z,0
2022-09-26T03:29:14.666Z,0
2022-09-26T03:30:17.821Z,0
2022-09-26T03:31:21.112Z,0
2022-09-26T03:32:24.368Z,0
2022-09-26T03:33:27.169Z,0
2022-09-26T03:34:30.165Z,0
2022-09-26T03:35:33.050Z,0
2022-09-26T03:36:35.874Z,0
2022-09-26T03:37:39.298Z,0
2022-09-26T03:38:41.740Z,0
2022-09-26T03:39:44.885Z,0
2022-09-26T03:40:48.871Z,0
2022-09-26T03:41:53.384Z,0
2022-09-26T03:42:57.189Z,0
2022-09-26T03:43:59.976Z,0
2022-09-26T03:45:02.006Z,0
2022-09-26T03:46:05.293Z,0
2022-09-26T03:47:08.879Z,0
2022-09-26T03:48:11.465Z,0
2022-09-26T03:49:14.545Z,0
2022-09-26T03:50:17.603Z,0
2022-09-26T03:51:20.691Z,0
2022-09-26T03:52:23.476Z,0
2022-09-26T03:53:26.574Z,0
2022-09-26T03:54:28.996Z,0
2022-09-26T03:55:31.864Z,0
2022-09-26T03:56:35.758Z,0
2022-09-26T03:57:38.881Z,0
2022-09-26T03:58:41.877Z,0
2022-09-26T03:59:45.672Z,0
2022-09-26T04:00:48.768Z,0
2022-09-26T04:01:51.815Z,0
2022-09-26T04:02:55.321Z,0
2022-09-26T04:03:58.674Z,0
2022-09-26T04:05:01.469Z,0
2022-09-26T04:06:04.181Z,0
2022-09-26T04:07:07.342Z,0
2022-09-26T04:08:10.416Z,0
2022-09-26T04:09:16.943Z,0
2022-09-26T04:10:21.794Z,0
2022-09-26T04:11:24.594Z,0
2022-09-26T04:12:28.350Z,0
2022-09-26T04:13:50.456Z,0
2022-09-26T04:14:56.386Z,0
2022-09-26T04:15:59.188Z,0
2022-09-26T04:17:01.999Z,0
2022-09-26T04:18:04.985Z,0
2022-09-26T04:19:07.770Z,0
2022-09-26T04:20:11.114Z,0
2022-09-26T04:21:14.549Z,0
2022-09-26T04:22:17.287Z,0
2022-09-26T04:23:20.634Z,0
2022-09-26T04:24:23.999Z,0
2022-09-26T04:25:26.997Z,0
2022-09-26T04:26:30.724Z,0
2022-09-26T04:27:34.583Z,0
2022-09-26T04:28:38.257Z,0
2022-09-26T04:29:40.962Z,0
2022-09-26T04:30:43.543Z,0
2022-09-26T04:31:47.000Z,0
2022-09-26T04:32:50.536Z,0
2022-09-26T04:33:53.802Z,0
2022-09-26T04:34:57.327Z,4
2022-09-26T04:35:59.843Z,4
2022-09-26T04:37:02.285Z,0
2022-09-26T04:38:05.821Z,4
2022-09-26T04:39:08.254Z,4
2022-09-26T04:40:11.509Z,4
2022-09-26T04:41:15.096Z,8
2022-09-26T04:42:18.523Z,4
2022-09-26T04:43:22.340Z,8
2022-09-26T04:44:25.524Z,12
2022-09-26T04:45:28.296Z,12
2022-09-26T04:46:31.698Z,12
2022-09-26T04:47:34.724Z,16
2022-09-26T04:48:37.648Z,20
2022-09-26T04:49:41.091Z,24
2022-09-26T04:50:43.603Z,28
2022-09-26T04:51:46.317Z,32
2022-09-26T04:52:48.817Z,36
2022-09-26T04:53:52.287Z,40
2022-09-26T04:54:54.889Z,52
2022-09-26T04:55:57.319Z,60
2022-09-26T04:57:00.493Z,72
2022-09-26T04:58:02.822Z,84
2022-09-26T04:59:07.126Z,96
2022-09-26T05:00:10.482Z,108
2022-09-26T05:01:12.979Z,124
2022-09-26T05:02:17.261Z,144
2022-09-26T05:03:21.183Z,156
2022-09-26T05:04:27.570Z,164
2022-09-26T05:05:30.480Z,172
2022-09-26T05:06:33.583Z,192
2022-09-26T05:07:36.675Z,204
2022-09-26T05:08:40.674Z,220
2022-09-26T05:09:43.422Z,244
2022-09-26T05:10:46.769Z,272
2022-09-26T05:11:49.829Z,288
2022-09-26T05:12:53.044Z,304
2022-09-26T05:13:56.113Z,320
2022-09-26T05:15:00.333Z,336
2022-09-26T05:16:03.837Z,352
2022-09-26T05:17:07.182Z,360
2022-09-26T05:18:09.774Z,372
2022-09-26T05:19:12.820Z,372
2022-09-26T05:20:16.778Z,384
2022-09-26T05:21:19.788Z,396
2022-09-26T05:22:22.322Z,412
2022-09-26T05:23:25.105Z,412
2022-09-26T05:24:27.347Z,436
2022-09-26T05:25:30.418Z,440
2022-09-26T05:26:33.217Z,444
2022-09-26T05:27:36.208Z,460
2022-09-26T05:28:39.553Z,476
2022-09-26T05:29:42.698Z,504
2022-09-26T05:30:46.667Z,548
2022-09-26T05:31:50.039Z,596
2022-09-26T05:32:53.863Z,648
2022-09-26T05:33:57.206Z,708
2022-09-26T05:35:00.112Z,776
2022-09-26T05:36:03.418Z,848
2022-09-26T05:37:06.283Z,920
2022-09-26T05:38:09.107Z,988
2022-09-26T05:39:11.653Z,1056
2022-09-26T05:40:13.872Z,1116
2022-09-26T05:41:17.603Z,1168
2022-09-26T05:42:20.413Z,1260
2022-09-26T05:43:23.278Z,1384
2022-09-26T05:44:26.414Z,1492
2022-09-26T05:45:30.312Z,1612
2022-09-26T05:46:34.316Z,1696
2022-09-26T05:47:38.305Z,1808
2022-09-26T05:48:41.283Z,1912
2022-09-26T05:49:43.864Z,2004
2022-09-26T05:50:46.935Z,2100
2022-09-26T05:51:50.306Z,2116
2022-09-26T05:52:52.946Z,2144
2022-09-26T05:53:55.265Z,2232
2022-09-26T05:54:58.626Z,2252
2022-09-26T05:56:01.520Z,2344
2022-09-26T05:57:03.956Z,2464
2022-09-26T05:58:07.366Z,2592
2022-09-26T05:59:10.334Z,2800
2022-09-26T06:00:14.040Z,2936
2022-09-26T06:01:17.532Z,3104
2022-09-26T06:02:22.176Z,3248
2022-09-26T06:03:26.202Z,3440
2022-09-26T06:04:29.702Z,3612
2022-09-26T06:05:33.420Z,3868
2022-09-26T06:06:36.488Z,4112
2022-09-26T06:07:39.864Z,4372
2022-09-26T06:08:42.950Z,4548
2022-09-26T06:09:45.677Z,4808
2022-09-26T06:10:48.198Z,4992
2022-09-26T06:11:50.982Z,5212
2022-09-26T06:12:53.228Z,5484
2022-09-26T06:13:56.589Z,5776
2022-09-26T06:15:00.029Z,6060
2022-09-26T06:16:02.795Z,6332
2022-09-26T06:17:05.960Z,6600
2022-09-26T06:18:09.743Z,6828
2022-09-26T06:19:12.931Z,7144
2022-09-26T06:20:24.981Z,7364
2022-09-26T06:21:27.225Z,7500
2022-09-26T06:22:30.019Z,7588
2022-09-26T06:23:33.198Z,7688
2022-09-26T06:24:35.912Z,7764
2022-09-26T06:25:39.569Z,7800
2022-09-26T06:26:42.646Z,7668
2022-09-26T06:27:46.374Z,7556
2022-09-26T06:28:50.021Z,7252
2022-09-26T06:29:53.107Z,6988
2022-09-26T06:30:56.208Z,6736
2022-09-26T06:31:59.135Z,6464
2022-09-26T06:33:02.883Z,6140
2022-09-26T06:34:06.781Z,5844
2022-09-26T06:35:09.920Z,5568
2022-09-26T06:36:12.985Z,5376
2022-09-26T06:37:15.783Z,5284
2022-09-26T06:38:19.435Z,5180
2022-09-26T06:39:22.264Z,5252
2022-09-26T06:40:25.464Z,5320
2022-09-26T06:41:29.402Z,5408
2022-09-26T06:42:32.922Z,5572
2022-09-26T06:43:36.105Z,5784
2022-09-26T06:44:39.554Z,6044
2022-09-26T06:45:43.003Z,6264
2022-09-26T06:46:46.422Z,6496
2022-09-26T06:47:49.621Z,6828
2022-09-26T06:48:52.495Z,7044
2022-09-26T06:49:56.399Z,7248
2022-09-26T06:50:59.439Z,7528
2022-09-26T06:52:02.182Z,7876
2022-09-26T06:53:09.659Z,8180
2022-09-26T06:54:12.289Z,8540
2022-09-26T06:55:15.715Z,8772
2022-09-26T06:56:19.178Z,8868
2022-09-26T06:57:21.975Z,9004
2022-09-26T06:58:24.757Z,9120
2022-09-26T06:59:27.749Z,9268
2022-09-26T07:00:30.592Z,9428
2022-09-26T07:01:34.214Z,9876
2022-09-26T07:02:37.801Z,10716
2022-09-26T07:03:45.310Z,11504
2022-09-26T07:04:49.550Z,12756
2022-09-26T07:05:53.248Z,13668
2022-09-26T07:06:58.289Z,14552
2022-09-26T07:08:00.375Z,14960
2022-09-26T07:09:06.546Z,14992
2022-09-26T07:10:20.955Z,15248
2022-09-26T07:11:41.811Z,15456
2022-09-26T07:13:18.264Z,15420
2022-09-26T07:14:21.143Z,15448
2022-09-26T07:15:24.583Z,15340
2022-09-26T07:16:27.694Z,14444
2022-09-26T07:17:31.723Z,15092
2022-09-26T07:18:34.810Z,16416
2022-09-26T07:19:37.712Z,18176
2022-09-26T07:20:41.142Z,19712
2022-09-26T07:21:45.404Z,20448
2022-09-26T07:22:48.643Z,19648
2022-09-26T07:23:52.097Z,18656
2022-09-26T07:24:54.888Z,17516
2022-09-26T07:25:57.761Z,16128
2022-09-26T07:27:01.119Z,15160
2022-09-26T07:28:03.833Z,13092
2022-09-26T07:29:07.177Z,11752
2022-09-26T07:30:10.294Z,10764
2022-09-26T07:31:13.356Z,10520
2022-09-26T07:32:16.815Z,11140
2022-09-26T07:33:19.912Z,11500
2022-09-26T07:34:23.348Z,11512
2022-09-26T07:35:26.618Z,11124
2022-09-26T07:36:29.765Z,10732
2022-09-26T07:37:33.610Z,10840
2022-09-26T07:38:36.602Z,11540
2022-09-26T07:39:39.750Z,12624
2022-09-26T07:40:42.545Z,14280
2022-09-26T07:41:47.210Z,16552
2022-09-26T07:43:04.191Z,63840
2022-09-26T07:46:36.585Z,18036
2022-09-26T07:47:40.275Z,17972
2022-09-26T07:48:43.267Z,17972
2022-09-26T07:49:46.363Z,19712
2022-09-26T07:50:50.381Z,16408
2022-09-26T07:51:52.622Z,14532
2022-09-26T07:52:56.600Z,14796
2022-09-26T07:54:00.356Z,15044
2022-09-26T07:55:03.067Z,14552
2022-09-26T07:56:05.944Z,14736
2022-09-26T07:57:09.308Z,14556
2022-09-26T07:58:12.512Z,14812
2022-09-26T07:59:15.593Z,17748
2022-09-26T08:00:18.480Z,18816
2022-09-26T08:01:22.531Z,18528
2022-09-26T08:02:26.368Z,17048
2022-09-26T08:03:30.508Z,12392
2022-09-26T08:04:33.389Z,11296
2022-09-26T08:05:36.187Z,10016
2022-09-26T08:06:39.966Z,10108
2022-09-26T08:07:43.079Z,11448
2022-09-26T08:08:47.156Z,12724
2022-09-26T08:09:50.536Z,14224
2022-09-26T08:10:53.629Z,16244
2022-09-26T08:11:56.819Z,19456
2022-09-26T08:12:59.535Z,23520
2022-09-26T08:14:02.344Z,30080
2022-09-26T08:15:05.246Z,34720
2022-09-26T08:16:08.437Z,72032
2022-09-26T08:17:14.189Z,45152
2022-09-26T08:18:17.061Z,24448
2022-09-26T08:19:20.444Z,21664
2022-09-26T08:20:25.425Z,20992
2022-09-26T08:21:35.893Z,22496
2022-09-26T08:22:38.979Z,24992
2022-09-26T08:23:41.772Z,34304
2022-09-26T08:24:45.694Z,26848
2022-09-26T08:25:49.085Z,28512
2022-09-26T08:26:51.897Z,39872
2022-09-26T08:27:55.271Z,44000
2022-09-26T08:28:57.700Z,79264
2022-09-26T08:30:01.459Z,83264
2022-09-26T08:31:05.107Z,82112
2022-09-26T08:32:08.795Z,84224
2022-09-26T08:33:11.863Z,88416
2022-09-26T08:34:15.105Z,96544
2022-09-26T08:35:27.466Z,68224
2022-09-26T08:36:30.622Z,54400
2022-09-26T08:37:33.194Z,97504
2022-09-26T08:38:36.054Z,43936
2022-09-26T08:39:38.655Z,82144
2022-09-26T08:40:42.642Z,74848
2022-09-26T08:41:46.065Z,62176
2022-09-26T08:42:49.139Z,44256
2022-09-26T08:43:52.755Z,41248
2022-09-26T08:44:55.563Z,31328
2022-09-26T08:45:58.956Z,33216
2022-09-26T08:47:02.763Z,30976
2022-09-26T08:48:05.736Z,30272
2022-09-26T08:49:09.387Z,30880
2022-09-26T08:50:12.572Z,29408
2022-09-26T08:51:15.363Z,29152
2022-09-26T08:52:18.157Z,30720
2022-09-26T08:53:21.531Z,31232
2022-09-26T08:54:24.619Z,29024
2022-09-26T08:55:28.051Z,23456
2022-09-26T08:56:31.955Z,20064
2022-09-26T08:57:35.513Z,17092
2022-09-26T08:58:38.741Z,15240
2022-09-26T08:59:41.630Z,16128
2022-09-26T09:00:44.762Z,17772
2022-09-26T09:01:47.941Z,19648
2022-09-26T09:02:51.887Z,43424
2022-09-26T09:03:55.103Z,14544
2022-09-26T09:04:58.261Z,13172
2022-09-26T09:06:01.689Z,12620
2022-09-26T09:07:04.693Z,11500
2022-09-26T09:08:07.232Z,11896
2022-09-26T09:09:10.329Z,12464
2022-09-26T09:10:13.692Z,13476
2022-09-26T09:11:16.861Z,16996
2022-09-26T09:12:23.909Z,21696
2022-09-26T09:13:35.245Z,24256
2022-09-26T09:14:38.591Z,21056
2022-09-26T09:15:41.993Z,15480
2022-09-26T09:16:45.717Z,13080
2022-09-26T09:17:48.800Z,13340
2022-09-26T09:18:51.610Z,12912
2022-09-26T09:19:55.323Z,14680
2022-09-26T09:20:57.792Z,15276
2022-09-26T09:22:01.218Z,15064
2022-09-26T09:23:04.083Z,15392
2022-09-26T09:24:07.042Z,17896
2022-09-26T09:25:10.164Z,17148
2022-09-26T09:29:11.074Z,14088
2022-09-26T09:30:21.650Z,12392
2022-09-26T09:31:25.228Z,11492
2022-09-26T09:32:28.745Z,12088
2022-09-26T09:33:32.119Z,14520
2022-09-26T09:34:35.464Z,18816
2022-09-26T09:35:38.820Z,39392
2022-09-26T09:36:41.936Z,52224
2022-09-26T09:37:45.602Z,39904
2022-09-26T09:38:48.401Z,42080
2022-09-26T09:39:51.417Z,33728
2022-09-26T09:40:54.924Z,53120
2022-09-26T09:41:58.608Z,49952
2022-09-26T09:43:01.704Z,42656
2022-09-26T09:44:04.952Z,41280
2022-09-26T09:45:09.184Z,46240
2022-09-26T09:46:13.247Z,42880
2022-09-26T09:47:16.576Z,38912
2022-09-26T09:48:19.667Z,35200
2022-09-26T09:49:22.556Z,31968
2022-09-26T09:50:25.100Z,43424
2022-09-26T09:51:28.532Z,57056
2022-09-26T09:52:34.231Z,44384
2022-09-26T09:53:37.416Z,78656
2022-09-26T09:54:40.210Z,62592
2022-09-26T09:55:43.590Z,55424
2022-09-26T09:56:47.054Z,68032
2022-09-26T09:57:50.131Z,92192
2022-09-26T09:58:53.464Z,101664
2022-09-26T09:59:57.207Z,101632
2022-09-26T10:01:01.090Z,95200
2022-09-26T10:02:04.325Z,46816
2022-09-26T10:03:07.629Z,69472
2022-09-26T10:04:11.944Z,51680
2022-09-26T10:05:15.380Z,41504
2022-09-26T10:06:44.865Z,36352
2022-09-26T10:07:50.383Z,35328
2022-09-26T10:08:53.860Z,41696
2022-09-26T10:09:57.018Z,44992
2022-09-26T10:11:00.198Z,68736
2022-09-26T10:12:02.804Z,79328
2022-09-26T10:13:06.268Z,91680
2022-09-26T10:14:09.183Z,108800
2022-09-26T10:15:12.435Z,105632
2022-09-26T10:16:15.773Z,105888
2022-09-26T10:17:20.092Z,107968
2022-09-26T10:18:25.519Z,102464
2022-09-26T10:19:29.847Z,73120
2022-09-26T10:20:33.557Z,66656
2022-09-26T10:21:36.897Z,45952
2022-09-26T10:22:39.993Z,46272
2022-09-26T10:23:43.443Z,61760
2022-09-26T10:24:47.175Z,53760
2022-09-26T10:25:49.427Z,48480
2022-09-26T10:26:52.571Z,51904
2022-09-26T10:27:55.633Z,52480
2022-09-26T10:28:59.135Z,54208
2022-09-26T10:30:02.230Z,43296
2022-09-26T10:31:06.311Z,45472
2022-09-26T10:32:10.473Z,68736
2022-09-26T10:33:13.880Z,65216
2022-09-26T10:34:16.972Z,45888
2022-09-26T10:35:19.986Z,43104
2022-09-26T10:36:23.549Z,78304
2022-09-26T10:37:26.362Z,35104
2022-09-26T10:38:29.579Z,28896
2022-09-26T10:39:33.086Z,28800
2022-09-26T10:40:36.734Z,26496
2022-09-26T10:41:40.877Z,41856
2022-09-26T10:42:43.397Z,29440
2022-09-26T10:43:47.134Z,27264
2022-09-26T10:44:49.996Z,68832
2022-09-26T10:45:52.947Z,24512
2022-09-26T10:46:55.820Z,38624
2022-09-26T10:48:00.621Z,32960
2022-09-26T10:49:04.664Z,103296
2022-09-26T10:50:08.464Z,136000
2022-09-26T10:51:11.178Z,112928
2022-09-26T10:52:18.330Z,119072
2022-09-26T10:53:21.821Z,137024
2022-09-26T10:54:25.277Z,34656
2022-09-26T10:55:28.338Z,42560
2022-09-26T10:56:31.215Z,31232
2022-09-26T10:57:34.511Z,33568
2022-09-26T10:58:37.191Z,31872
2022-09-26T10:59:41.536Z,30976
2022-09-26T11:00:44.965Z,23168
2022-09-26T11:01:47.828Z,19072
2022-09-26T11:02:52.030Z,15400
2022-09-26T11:03:55.973Z,16036
2022-09-26T11:04:59.462Z,14700
2022-09-26T11:06:02.997Z,23168
2022-09-26T11:07:05.985Z,14456
2022-09-26T11:08:09.423Z,6768
2022-09-26T11:09:13.427Z,5272
2022-09-26T11:10:16.527Z,4244
2022-09-26T11:11:19.866Z,3704
2022-09-26T11:12:22.923Z,4132
2022-09-26T11:13:25.843Z,3420
2022-09-26T11:14:28.650Z,2548
2022-09-26T11:15:32.515Z,1888
2022-09-26T11:16:37.313Z,2048
2022-09-26T11:17:40.458Z,2120
2022-09-26T11:18:43.374Z,2480
2022-09-26T11:19:49.959Z,2840
2022-09-26T11:20:58.380Z,2940
2022-09-26T11:22:04.535Z,3136
2022-09-26T11:23:11.524Z,3876
2022-09-26T11:24:14.718Z,5192
2022-09-26T11:26:27.665Z,55648
2022-09-26T11:29:45.914Z,73184
2022-09-26T11:32:00.354Z,12068
2022-09-26T11:34:12.905Z,7188
2022-09-26T11:35:17.799Z,6984
2022-09-26T11:36:21.520Z,7608
2022-09-26T11:37:24.421Z,6568
2022-09-26T11:38:27.427Z,5840
2022-09-26T11:39:29.978Z,4788
2022-09-26T11:40:32.615Z,3908
2022-09-26T11:41:36.416Z,3220
2022-09-26T11:42:39.165Z,2812
2022-09-26T11:43:42.235Z,2536
2022-09-26T11:44:45.719Z,2336
2022-09-26T11:45:49.054Z,2656
2022-09-26T11:46:52.081Z,3396
2022-09-26T11:47:55.731Z,4272
2022-09-26T11:48:58.908Z,4860
2022-09-26T11:50:02.425Z,5364
2022-09-26T11:51:06.271Z,4760
2022-09-26T11:52:09.374Z,4548
2022-09-26T11:53:12.990Z,4720
2022-09-26T11:54:16.359Z,5116
2022-09-26T11:55:19.906Z,5652
2022-09-26T11:56:23.520Z,5744
2022-09-26T11:57:26.025Z,5304
2022-09-26T11:58:28.620Z,4940
2022-09-26T11:59:31.621Z,5044
2022-09-26T12:00:34.444Z,4672
2022-09-26T12:01:37.902Z,4700
2022-09-26T12:02:40.787Z,4188
2022-09-26T12:03:44.828Z,4520
2022-09-26T12:04:48.567Z,4936
2022-09-26T12:05:51.488Z,4464
2022-09-26T12:06:55.422Z,3900
2022-09-26T12:07:58.907Z,4768
2022-09-26T12:09:02.426Z,6700
2022-09-26T12:10:05.585Z,8056
2022-09-26T12:11:08.368Z,7640
2022-09-26T12:12:11.514Z,7268
2022-09-26T12:13:15.172Z,7056
2022-09-26T12:14:17.788Z,6964
2022-09-26T12:15:20.662Z,7512
2022-09-26T12:16:23.916Z,9388
2022-09-26T12:17:27.500Z,13220
2022-09-26T12:18:30.497Z,18944
2022-09-26T12:19:33.925Z,24544
2022-09-26T12:20:37.103Z,27168
2022-09-26T12:21:40.196Z,28736
2022-09-26T12:22:44.004Z,28704
2022-09-26T12:23:47.553Z,28320
2022-09-26T12:24:50.892Z,27712
2022-09-26T12:25:53.788Z,28064
2022-09-26T12:26:57.193Z,27392
2022-09-26T12:28:00.287Z,28864
2022-09-26T12:29:03.242Z,29408
2022-09-26T12:30:06.152Z,28896
2022-09-26T12:31:09.265Z,27872
2022-09-26T12:32:20.872Z,32672
2022-09-26T12:33:24.066Z,29600
2022-09-26T12:34:26.905Z,29728
2022-09-26T12:35:30.644Z,27488
2022-09-26T12:36:33.360Z,24704
2022-09-26T12:37:35.896Z,20864
2022-09-26T12:38:39.983Z,17320
2022-09-26T12:39:43.141Z,15800
2022-09-26T12:40:45.894Z,18400
2022-09-26T12:41:49.388Z,21472
2022-09-26T12:42:52.586Z,20896
2022-09-26T12:43:56.345Z,16528
2022-09-26T12:45:00.050Z,15072
2022-09-26T12:46:03.351Z,18912
2022-09-26T12:47:07.546Z,17364
2022-09-26T12:48:10.992Z,16508
2022-09-26T12:49:14.338Z,19104
2022-09-26T12:50:19.179Z,21088
2022-09-26T12:51:22.681Z,21184
2022-09-26T12:52:27.384Z,21120
2022-09-26T12:53:31.031Z,21216
2022-09-26T12:54:34.912Z,21664
2022-09-26T12:55:38.255Z,22176
2022-09-26T12:56:40.829Z,21536
2022-09-26T12:57:44.273Z,20832
2022-09-26T12:58:47.166Z,20640
2022-09-26T12:59:50.233Z,20352
2022-09-26T13:00:53.050Z,19968
2022-09-26T13:01:55.996Z,19808
2022-09-26T13:02:59.556Z,19648
2022-09-26T13:04:02.937Z,19552
2022-09-26T13:05:06.590Z,19200
2022-09-26T13:06:09.107Z,18784
2022-09-26T13:07:19.163Z,18148
2022-09-26T13:08:24.098Z,18072
2022-09-26T13:09:27.313Z,17772
2022-09-26T13:10:30.855Z,17488
2022-09-26T13:11:33.962Z,17380
2022-09-26T13:12:37.125Z,17244
2022-09-26T13:13:40.778Z,17128
2022-09-26T13:14:44.153Z,16964
2022-09-26T13:15:48.316Z,16320
2022-09-26T13:16:52.104Z,15872
2022-09-26T13:17:55.558Z,16040
2022-09-26T13:18:57.856Z,15556
2022-09-26T13:20:00.737Z,14560
2022-09-26T13:21:03.937Z,14680
2022-09-26T13:22:07.098Z,14684
2022-09-26T13:23:10.551Z,14588
2022-09-26T13:24:13.615Z,14232
2022-09-26T13:25:16.885Z,12864
2022-09-26T13:26:20.970Z,11200
2022-09-26T13:27:24.710Z,10892
2022-09-26T13:28:27.132Z,11984
2022-09-26T13:29:30.554Z,12992
2022-09-26T13:30:34.832Z,12840
2022-09-26T13:31:37.602Z,12444
2022-09-26T13:32:40.620Z,12156
2022-09-26T13:33:44.047Z,11968
2022-09-26T13:34:47.852Z,11896
2022-09-26T13:35:51.200Z,11692
2022-09-26T13:36:54.621Z,11756
2022-09-26T13:38:00.732Z,12604
2022-09-26T13:39:11.109Z,13680
2022-09-26T13:40:13.926Z,13728
2022-09-26T13:41:17.125Z,13408
2022-09-26T13:42:20.384Z,12816
2022-09-26T13:43:24.329Z,11884
2022-09-26T13:44:27.758Z,10928
2022-09-26T13:45:30.638Z,10132
2022-09-26T13:46:33.778Z,9616
2022-09-26T13:47:37.724Z,9512
2022-09-26T13:48:40.257Z,9424
2022-09-26T13:49:43.053Z,9044
2022-09-26T13:50:47.061Z,8984
2022-09-26T13:51:51.161Z,8228
2022-09-26T13:52:55.193Z,7412
2022-09-26T13:53:58.490Z,7488
2022-09-26T13:55:01.716Z,7108
2022-09-26T13:56:05.719Z,6684
2022-09-26T13:57:08.729Z,6908
2022-09-26T13:58:12.554Z,7068
2022-09-26T13:59:15.988Z,6516
2022-09-26T14:00:19.079Z,6220
2022-09-26T14:01:22.299Z,5372
2022-09-26T14:02:26.558Z,4484
2022-09-26T14:03:30.356Z,4152
2022-09-26T14:04:34.082Z,3896
2022-09-26T14:05:37.585Z,4200
2022-09-26T14:06:41.178Z,4612
2022-09-26T14:07:44.625Z,4632
2022-09-26T14:08:47.281Z,4500
2022-09-26T14:09:50.949Z,4500
2022-09-26T14:10:53.908Z,4520
2022-09-26T14:11:57.614Z,5060
2022-09-26T14:13:00.806Z,5420
2022-09-26T14:14:04.693Z,6080
2022-09-26T14:15:08.164Z,6616
2022-09-26T14:16:11.764Z,7392
2022-09-26T14:17:19.456Z,7392
2022-09-26T14:18:23.583Z,7488
2022-09-26T14:19:26.470Z,6836
2022-09-26T14:20:29.371Z,6232
2022-09-26T14:21:32.521Z,6280
2022-09-26T14:22:35.234Z,4188
2022-09-26T14:23:38.411Z,2568
2022-09-26T14:24:41.628Z,2208
2022-09-26T14:25:45.077Z,2488
2022-09-26T14:26:48.524Z,3048
2022-09-26T14:27:51.871Z,3768
2022-09-26T14:28:54.696Z,4528
2022-09-26T14:29:58.551Z,4144
2022-09-26T14:31:01.678Z,3424
2022-09-26T14:32:04.612Z,4612
2022-09-26T14:33:07.577Z,4952
2022-09-26T14:34:10.948Z,5288
2022-09-26T14:35:14.341Z,5104
2022-09-26T14:36:17.694Z,4576